createdAt,value
2018-05-27T00:02:11.072Z,74.40
2018-05-27T00:04:38.641Z,74.50
2018-05-27T00:07:06.203Z,72.30
2018-05-27T00:09:33.797Z,73.90
2018-05-27T00:12:01.376Z,73.10
2018-05-27T00:14:28.971Z,75.10
2018-05-27T00:16:56.543Z,73.40
2018-05-27T00:19:24.140Z,71.90
2018-05-27T00:21:52.491Z,73.80
2018-05-27T00:24:20.090Z,73.70
2018-05-27T00:26:47.659Z,72.20
2018-05-27T00:29:16.009Z,74.20
2018-05-27T00:31:43.581Z,74.00
2018-05-27T00:34:11.197Z,72.50
2018-05-27T00:36:38.786Z,74.50
2018-05-27T00:39:06.377Z,73.80
2018-05-27T00:41:34.706Z,73.60
2018-05-27T00:44:02.308Z,73.50
2018-05-27T00:46:29.886Z,73.20
2018-05-27T00:48:57.488Z,72.10
2018-05-27T00:51:25.064Z,73.10
2018-05-27T00:53:59.397Z,74.70
2018-05-27T00:56:26.972Z,75.30
2018-05-27T00:58:55.337Z,74.20
2018-05-27T01:01:22.919Z,74.10
2018-05-27T01:03:50.521Z,73.90
2018-05-27T01:06:18.078Z,72.90
2018-05-27T01:08:45.673Z,70.90
2018-05-27T01:11:14.010Z,72.90
2018-05-27T01:13:41.595Z,72.10
2018-05-27T01:16:09.210Z,74.00
2018-05-27T01:18:36.790Z,72.00
2018-05-27T01:21:04.398Z,73.60
2018-05-27T01:23:32.747Z,73.90
2018-05-27T01:26:00.342Z,73.70
2018-05-27T01:28:28.697Z,71.30
2018-05-27T01:30:56.295Z,71.30
2018-05-27T01:33:23.867Z,74.40
2018-05-27T01:35:51.463Z,72.00
2018-05-27T01:38:19.050Z,74.60
2018-05-27T01:40:47.420Z,72.40
2018-05-27T01:43:14.995Z,72.50
2018-05-27T01:45:43.367Z,71.60
2018-05-27T01:48:11.699Z,73.60
2018-05-27T01:50:39.308Z,73.40
2018-05-27T01:53:06.887Z,75.30
2018-05-27T01:55:34.540Z,71.60
2018-05-27T01:58:02.098Z,71.60
2018-05-27T02:00:29.690Z,71.80
2018-05-27T02:02:57.256Z,72.10
2018-05-27T02:05:24.861Z,72.50
2018-05-27T02:07:53.202Z,74.80
2018-05-27T02:10:20.799Z,74.70
2018-05-27T02:12:48.392Z,75.10
2018-05-27T02:15:15.984Z,73.50
2018-05-27T02:17:43.564Z,72.70
2018-05-27T02:20:11.171Z,74.80
2018-05-27T02:22:38.733Z,74.50
2018-05-27T02:25:06.296Z,76.90
2018-05-27T02:27:33.908Z,75.10
2018-05-27T02:30:02.240Z,75.50
2018-05-27T02:32:29.840Z,75.50
2018-05-27T02:34:58.180Z,73.60
2018-05-27T02:37:25.788Z,73.40
2018-05-27T02:39:54.126Z,72.60
2018-05-27T02:42:21.773Z,72.70
2018-05-27T02:44:49.339Z,76.90
2018-05-27T02:47:17.715Z,73.30
2018-05-27T02:49:45.289Z,73.30
2018-05-27T02:52:12.889Z,75.10
2018-05-27T02:54:41.223Z,75.30
2018-05-27T02:57:08.827Z,75.20
2018-05-27T02:59:37.185Z,76.10
2018-05-27T03:02:04.808Z,75.90
2018-05-27T03:04:32.387Z,74.60
2018-05-27T03:06:59.990Z,74.60
2018-05-27T03:09:27.567Z,74.70
2018-05-27T03:11:55.175Z,73.60
2018-05-27T03:14:22.753Z,77.50
2018-05-27T03:16:50.338Z,74.60
2018-05-27T03:19:17.912Z,76.40
2018-05-27T03:21:45.568Z,75.50
2018-05-27T03:24:13.153Z,75.30
2018-05-27T03:26:40.747Z,75.40
2018-05-27T03:29:09.087Z,76.00
2018-05-27T03:31:36.695Z,76.20
2018-05-27T03:34:05.018Z,73.90
2018-05-27T03:36:32.619Z,73.90
2018-05-27T03:39:00.959Z,75.60
2018-05-27T03:41:28.526Z,75.50
2018-05-27T03:43:56.120Z,73.80
2018-05-27T03:46:23.691Z,77.10
2018-05-27T03:48:51.307Z,74.50
2018-05-27T03:51:18.887Z,73.30
2018-05-27T03:53:46.480Z,74.30
2018-05-27T03:56:14.059Z,73.60
2018-05-27T03:58:41.656Z,77.00
2018-05-27T04:01:09.230Z,77.00
2018-05-27T04:03:36.843Z,75.10
2018-05-27T04:06:16.123Z,74.00
2018-05-27T04:08:43.738Z,75.80
2018-05-27T04:11:12.950Z,75.00
2018-05-27T04:13:40.549Z,77.10
2018-05-27T04:16:08.884Z,77.00
2018-05-27T04:18:36.485Z,77.00
2018-05-27T04:21:04.048Z,76.90
2018-05-27T04:23:31.660Z,75.80
2018-05-27T04:25:59.228Z,73.30
2018-05-27T04:28:26.875Z,75.00
2018-05-27T04:30:54.418Z,77.00
2018-05-27T04:33:22.023Z,77.10
2018-05-27T04:35:49.582Z,77.30
2018-05-27T04:38:17.172Z,76.00
2018-05-27T04:40:44.745Z,75.50
2018-05-27T04:43:12.338Z,77.70
2018-05-27T04:45:39.903Z,75.00
2018-05-27T04:48:07.504Z,76.10
2018-05-27T04:50:35.089Z,74.80
2018-05-27T04:53:02.687Z,74.10
2018-05-27T04:55:30.250Z,78.50
2018-05-27T04:57:57.861Z,78.10
2018-05-27T05:00:25.440Z,77.80
2018-05-27T05:02:53.012Z,78.90
2018-05-27T05:05:20.606Z,78.60
2018-05-27T05:07:48.950Z,78.50
2018-05-27T05:10:16.538Z,78.80
2018-05-27T05:12:44.103Z,77.60
2018-05-27T05:15:12.481Z,78.00
2018-05-27T05:17:40.815Z,76.00
2018-05-27T05:20:08.419Z,76.00
2018-05-27T05:22:35.990Z,76.90
2018-05-27T05:25:03.602Z,78.30
2018-05-27T05:27:31.193Z,77.80
2018-05-27T05:29:58.788Z,78.30
2018-05-27T05:32:26.356Z,78.60
2018-05-27T05:34:53.965Z,76.90
2018-05-27T05:37:21.534Z,78.10
2018-05-27T05:39:49.890Z,77.50
2018-05-27T05:42:17.464Z,77.60
2018-05-27T05:44:45.067Z,77.00
2018-05-27T05:47:12.644Z,79.30
2018-05-27T05:49:40.243Z,75.60
2018-05-27T05:52:07.823Z,76.10
2018-05-27T05:54:35.412Z,74.40
2018-05-27T05:57:03.762Z,72.60
2018-05-27T05:59:32.127Z,71.80
2018-05-27T06:01:59.713Z,71.80
2018-05-27T06:04:27.293Z,71.70
2018-05-27T06:06:54.855Z,71.10
2018-05-27T06:09:23.235Z,67.30
2018-05-27T06:11:50.810Z,67.30
2018-05-27T06:14:18.407Z,67.00
2018-05-27T06:16:45.975Z,65.70
2018-05-27T06:19:14.332Z,62.10
2018-05-27T06:21:41.939Z,62.00
2018-05-27T06:24:09.515Z,61.60
2018-05-27T06:26:37.108Z,61.40
2018-05-27T06:29:04.679Z,58.30
2018-05-27T06:31:33.043Z,58.20
2018-05-27T06:34:00.612Z,58.20
2018-05-27T06:36:28.998Z,56.60
2018-05-27T06:38:57.343Z,53.20
2018-05-27T06:41:24.945Z,53.30
2018-05-27T06:43:53.283Z,52.70
2018-05-27T06:46:20.890Z,52.60
2018-05-27T06:48:48.466Z,50.20
2018-05-27T06:51:16.072Z,51.50
2018-05-27T06:53:43.644Z,49.30
2018-05-27T06:56:12.020Z,51.50
2018-05-27T06:58:39.595Z,51.50
2018-05-27T07:01:07.962Z,50.70
2018-05-27T07:03:36.296Z,51.10
2018-05-27T07:06:03.892Z,51.20
2018-05-27T07:08:31.465Z,46.50
2018-05-27T07:10:59.838Z,46.60
2018-05-27T07:13:28.188Z,47.10
2018-05-27T07:15:55.778Z,47.00
2018-05-27T07:18:24.110Z,46.30
2018-05-27T07:20:51.703Z,46.20
2018-05-27T07:23:20.040Z,47.50
2018-05-27T07:25:47.644Z,47.50
2018-05-27T07:28:16.001Z,42.10
2018-05-27T07:30:44.391Z,44.80
2018-05-27T07:33:11.960Z,44.50
2018-05-27T07:35:39.561Z,42.70
2018-05-27T07:38:07.909Z,42.50
2018-05-27T07:40:35.517Z,42.80
2018-05-27T07:43:03.104Z,42.60
2018-05-27T07:45:30.672Z,42.80
2018-05-27T07:47:58.614Z,44.30
2018-05-27T07:50:26.989Z,44.60
2018-05-27T07:52:54.594Z,44.50
2018-05-27T07:55:22.157Z,46.50
2018-05-27T07:57:49.760Z,45.90
2018-05-27T08:00:17.332Z,46.40
2018-05-27T08:02:44.933Z,47.30
2018-05-27T08:05:12.507Z,47.90
2018-05-27T08:07:40.148Z,46.80
2018-05-27T08:10:07.707Z,46.70
2018-05-27T08:12:36.067Z,45.20
2018-05-27T08:15:03.651Z,45.10
2018-05-27T08:17:31.243Z,46.30
2018-05-27T08:19:58.829Z,44.10
2018-05-27T08:22:26.455Z,44.00
2018-05-27T08:24:54.809Z,42.50
2018-05-27T08:27:22.428Z,42.30
2018-05-27T08:29:49.994Z,41.20
2018-05-27T08:32:17.596Z,42.20
2018-05-27T08:34:45.170Z,42.70
2018-05-27T08:37:12.774Z,42.60
2018-05-27T08:39:40.336Z,42.70
2018-05-27T08:42:07.932Z,42.60
2018-05-27T08:44:35.514Z,41.60
2018-05-27T08:47:03.118Z,42.60
2018-05-27T08:49:30.720Z,41.40
2018-05-27T08:51:58.299Z,41.50
2018-05-27T08:54:25.904Z,39.10
2018-05-27T08:56:54.250Z,38.40
2018-05-27T08:59:21.843Z,38.20
2018-05-27T09:01:49.426Z,36.80
2018-05-27T09:04:17.019Z,36.90
2018-05-27T09:06:44.587Z,36.70
2018-05-27T09:09:12.190Z,36.80
2018-05-27T09:11:40.576Z,35.50
2018-05-27T09:14:08.165Z,35.60
2018-05-27T09:16:35.745Z,35.30
2018-05-27T09:19:03.346Z,35.00
2018-05-27T09:21:30.911Z,33.10
2018-05-27T09:23:58.499Z,33.90
2018-05-27T09:26:26.088Z,33.30
2018-05-27T09:28:53.689Z,36.10
2018-05-27T09:31:22.023Z,34.40
2018-05-27T09:33:49.635Z,34.50
2018-05-27T09:36:17.208Z,32.90
2018-05-27T09:38:44.799Z,32.70
2018-05-27T09:41:12.378Z,34.70
2018-05-27T09:43:39.992Z,34.20
2018-05-27T09:46:07.567Z,33.60
2018-05-27T09:48:35.900Z,34.90
2018-05-27T09:51:03.548Z,34.90
2018-05-27T09:53:31.083Z,37.10
2018-05-27T09:55:58.683Z,35.80
2018-05-27T09:58:26.257Z,35.10
2018-05-27T10:00:53.843Z,34.10
2018-05-27T10:03:21.404Z,34.80
2018-05-27T10:05:49.011Z,33.20
2018-05-27T10:08:16.571Z,33.00
2018-05-27T10:10:44.180Z,33.80
2018-05-27T10:13:11.752Z,34.20
2018-05-27T10:15:39.349Z,32.10
2018-05-27T10:18:07.679Z,31.90
2018-05-27T10:20:35.279Z,31.90
2018-05-27T10:23:04.413Z,33.30
2018-05-27T10:25:32.096Z,33.30
2018-05-27T10:27:59.662Z,34.30
2018-05-27T10:30:27.260Z,33.90
2018-05-27T10:32:55.598Z,35.00
2018-05-27T10:35:23.186Z,34.90
2018-05-27T10:37:50.767Z,34.40
2018-05-27T10:40:18.361Z,33.90
2018-05-27T10:42:45.929Z,35.50
2018-05-27T10:45:13.522Z,36.30
2018-05-27T10:47:41.119Z,37.30
2018-05-27T10:50:08.711Z,35.30
2018-05-27T10:52:36.285Z,34.90
2018-05-27T10:55:03.942Z,36.10
2018-05-27T10:57:31.543Z,36.30
2018-05-27T10:59:59.695Z,36.00
2018-05-27T11:02:27.720Z,35.70
2018-05-27T11:04:55.873Z,35.90
2018-05-27T11:07:24.147Z,34.20
2018-05-27T11:09:52.625Z,36.00
2018-05-27T11:12:20.935Z,37.20
2018-05-27T11:14:49.213Z,37.40
2018-05-27T11:17:18.293Z,36.60
2018-05-27T11:19:45.950Z,36.60
2018-05-27T11:22:13.543Z,38.10
2018-05-27T11:24:41.115Z,37.30
2018-05-27T11:27:08.750Z,37.50
2018-05-27T11:29:36.289Z,37.90
2018-05-27T11:32:03.882Z,37.20
2018-05-27T11:34:31.459Z,39.20
2018-05-27T11:36:59.839Z,37.50
2018-05-27T11:39:28.186Z,38.00
2018-05-27T11:41:55.800Z,37.80
2018-05-27T11:44:23.371Z,38.50
2018-05-27T11:46:51.749Z,38.20
2018-05-27T11:49:19.319Z,38.20
2018-05-27T11:51:46.915Z,38.60
2018-05-27T11:54:14.524Z,38.10
2018-05-27T11:56:42.878Z,39.10
2018-05-27T11:59:11.210Z,38.40
2018-05-27T12:01:38.871Z,38.30
2018-05-27T12:04:06.417Z,37.80
2018-05-27T12:06:34.027Z,36.60
2018-05-27T12:09:02.499Z,40.30
2018-05-27T12:11:30.016Z,40.20
2018-05-27T12:13:57.606Z,39.80
2018-05-27T12:16:25.190Z,40.00
2018-05-27T12:18:53.537Z,41.30
2018-05-27T12:21:21.108Z,41.20
2018-05-27T12:23:48.725Z,41.20
2018-05-27T12:26:16.287Z,40.50
2018-05-27T12:28:44.647Z,41.10
2018-05-27T12:31:12.224Z,41.10
2018-05-27T12:33:41.087Z,41.50
2018-05-27T12:36:08.711Z,42.20
2018-05-27T12:38:36.315Z,41.60
2018-05-27T12:41:03.896Z,43.70
2018-05-27T12:43:31.488Z,42.10
2018-05-27T12:45:59.063Z,42.90
2018-05-27T12:48:27.427Z,41.80
2018-05-27T12:50:55.034Z,41.70
2018-05-27T12:53:23.379Z,40.70
2018-05-27T12:55:50.950Z,40.60
2018-05-27T12:58:19.325Z,43.10
2018-05-27T13:00:46.883Z,43.10
2018-05-27T13:03:15.238Z,40.30
2018-05-27T13:05:42.832Z,40.20
2018-05-27T13:08:10.419Z,41.90
2018-05-27T13:10:37.998Z,41.60
2018-05-27T13:13:05.706Z,43.20
2018-05-27T13:15:34.039Z,43.40
2018-05-27T13:18:01.632Z,43.30
2018-05-27T13:20:29.202Z,42.80
2018-05-27T13:22:56.810Z,42.00
2018-05-27T13:25:24.384Z,40.80
2018-05-27T13:27:51.957Z,42.00
2018-05-27T13:30:19.576Z,41.70
2018-05-27T13:32:47.152Z,42.70
2018-05-27T13:35:14.782Z,41.30
2018-05-27T13:37:42.391Z,41.60
2018-05-27T13:40:10.001Z,41.80
2018-05-27T13:42:37.585Z,40.00
2018-05-27T13:45:05.201Z,40.40
2018-05-27T13:47:32.782Z,41.80
2018-05-27T13:50:00.397Z,42.80
2018-05-27T13:52:27.972Z,43.00
2018-05-27T13:54:56.339Z,43.90
2018-05-27T13:57:23.908Z,43.80
2018-05-27T13:59:52.274Z,43.50
2018-05-27T14:02:19.855Z,43.40
2018-05-27T14:04:48.264Z,42.10
2018-05-27T14:07:15.821Z,42.20
2018-05-27T14:09:43.480Z,42.10
2018-05-27T14:12:11.061Z,42.30
2018-05-27T14:14:38.664Z,42.30
2018-05-27T14:17:06.265Z,42.60
2018-05-27T14:19:33.855Z,40.90
2018-05-27T14:22:01.431Z,41.80
2018-05-27T14:24:29.050Z,42.20
2018-05-27T14:26:56.606Z,43.50
2018-05-27T14:29:24.178Z,42.70
2018-05-27T14:31:51.771Z,41.40
2018-05-27T14:34:20.113Z,42.80
2018-05-27T14:36:47.731Z,42.80
2018-05-27T14:39:15.300Z,41.00
2018-05-27T14:41:42.894Z,40.10
2018-05-27T14:44:10.515Z,43.00
2018-05-27T14:46:38.111Z,45.10
2018-05-27T14:49:05.727Z,46.40
2018-05-27T14:51:34.093Z,52.80
2018-05-27T14:54:02.427Z,53.80
2018-05-27T14:56:30.036Z,53.80
2018-05-27T14:58:57.615Z,54.20
2018-05-27T15:01:25.259Z,55.20
2018-05-27T15:03:52.848Z,55.70
2018-05-27T15:06:20.443Z,57.80
2018-05-27T15:08:48.039Z,57.40
2018-05-27T15:11:15.638Z,57.70
2018-05-27T15:13:43.216Z,60.20
2018-05-27T15:16:10.835Z,59.20
2018-05-27T15:18:38.465Z,60.40
2018-05-27T15:21:06.098Z,61.10
2018-05-27T15:23:33.679Z,60.60
2018-05-27T15:26:01.285Z,62.50
2018-05-27T15:28:29.446Z,62.60
2018-05-27T15:30:57.529Z,64.10
2018-05-27T15:33:25.697Z,64.40
2018-05-27T15:35:53.321Z,63.90
2018-05-27T15:38:20.959Z,65.70
2018-05-27T15:40:48.539Z,63.50
2018-05-27T15:43:16.175Z,66.30
2018-05-27T15:45:43.771Z,67.60
2018-05-27T15:48:12.136Z,65.10
2018-05-27T15:50:39.731Z,65.20
2018-05-27T15:53:07.345Z,68.40
2018-05-27T15:55:34.924Z,64.50
2018-05-27T15:58:03.292Z,65.10
2018-05-27T16:00:30.861Z,65.00
2018-05-27T16:02:59.236Z,69.10
2018-05-27T16:05:27.879Z,67.50
2018-05-27T16:07:55.492Z,67.40
2018-05-27T16:10:23.082Z,68.20
2018-05-27T16:12:50.698Z,69.00
2018-05-27T16:15:19.040Z,70.30
2018-05-27T16:17:46.652Z,70.20
2018-05-27T16:20:14.990Z,69.10
2018-05-27T16:22:42.586Z,69.40
2018-05-27T16:25:10.932Z,68.90
2018-05-27T16:27:38.543Z,69.00
2018-05-27T16:30:06.104Z,70.00
2018-05-27T16:32:33.712Z,69.10
2018-05-27T16:35:01.280Z,70.60
2018-05-27T16:37:28.878Z,70.90
2018-05-27T16:39:56.443Z,71.50
2018-05-27T16:42:24.047Z,71.00
2018-05-27T16:44:51.624Z,71.30
2018-05-27T16:47:19.202Z,71.50
2018-05-27T16:49:46.798Z,72.20
2018-05-27T16:52:14.370Z,70.80
2018-05-27T16:54:41.979Z,69.40
2018-05-27T16:57:10.327Z,70.30
2018-05-27T16:59:37.927Z,70.30
2018-05-27T17:02:05.510Z,68.70
2018-05-27T17:04:33.109Z,70.90
2018-05-27T17:07:00.683Z,67.90
2018-05-27T17:09:29.049Z,67.90
2018-05-27T17:11:56.625Z,67.80
2018-05-27T17:14:24.983Z,70.60
2018-05-27T17:16:52.553Z,70.50
2018-05-27T17:19:20.910Z,70.00
2018-05-27T17:21:48.475Z,70.10
2018-05-27T17:24:16.074Z,69.50
2018-05-27T17:26:43.649Z,72.50
2018-05-27T17:29:11.243Z,71.20
2018-05-27T17:31:38.827Z,69.90
2018-05-27T17:34:06.428Z,72.30
2018-05-27T17:36:33.987Z,70.40
2018-05-27T17:39:01.583Z,71.50
2018-05-27T17:41:29.197Z,71.10
2018-05-27T17:43:56.790Z,71.20
2018-05-27T17:46:24.360Z,70.60
2018-05-27T17:48:51.964Z,72.20
2018-05-27T17:51:19.551Z,72.50
2018-05-27T17:53:47.895Z,73.20
2018-05-27T17:56:16.413Z,72.60
2018-05-27T17:58:44.033Z,72.50
2018-05-27T18:01:11.647Z,73.50
2018-05-27T18:03:39.215Z,73.30
2018-05-27T18:06:06.916Z,72.30
2018-05-27T18:08:34.497Z,71.80
2018-05-27T18:11:02.193Z,72.00
2018-05-27T18:13:29.784Z,74.60
2018-05-27T18:15:58.139Z,71.80
2018-05-27T18:18:25.719Z,71.80
2018-05-27T18:20:53.330Z,72.00
2018-05-27T18:23:20.921Z,71.50
2018-05-27T18:25:48.515Z,73.70
2018-05-27T18:28:16.855Z,73.80
2018-05-27T18:30:44.452Z,73.70
2018-05-27T18:33:12.797Z,72.10
2018-05-27T18:35:40.404Z,72.00
2018-05-27T18:38:08.015Z,75.00
2018-05-27T18:40:36.400Z,73.90
2018-05-27T18:43:03.972Z,73.40
2018-05-27T18:45:32.335Z,73.10
2018-05-27T18:47:59.912Z,73.10
2018-05-27T18:50:27.516Z,73.20
2018-05-27T18:52:55.092Z,73.50
2018-05-27T18:55:22.687Z,73.70
2018-05-27T18:57:51.032Z,73.30
2018-05-27T19:00:18.641Z,73.30
2018-05-27T19:02:46.983Z,73.50
2018-05-27T19:05:14.563Z,73.50
2018-05-27T19:07:42.944Z,71.90
2018-05-27T19:10:11.283Z,74.60
2018-05-27T19:12:38.875Z,74.40
2018-05-27T19:15:07.207Z,74.40
2018-05-27T19:17:34.827Z,73.70
2018-05-27T19:20:03.168Z,74.90
2018-05-27T19:22:30.771Z,75.10
2018-05-27T19:24:58.397Z,74.60
2018-05-27T19:27:26.930Z,75.20
2018-05-27T19:29:54.499Z,75.70
2018-05-27T19:32:22.100Z,75.90
2018-05-27T19:34:49.676Z,73.20
2018-05-27T19:37:18.039Z,73.70
2018-05-27T19:39:45.612Z,73.70
2018-05-27T19:42:13.255Z,73.60
2018-05-27T19:44:40.806Z,72.60
2018-05-27T19:47:08.402Z,75.30
2018-05-27T19:49:36.742Z,75.00
2018-05-27T19:52:04.357Z,74.90
2018-05-27T19:54:31.987Z,73.60
2018-05-27T19:56:59.592Z,72.50
2018-05-27T19:59:27.173Z,75.90
2018-05-27T20:01:54.779Z,75.50
2018-05-27T20:04:23.130Z,73.60
2018-05-27T20:06:50.728Z,73.60
2018-05-27T20:09:18.315Z,76.30
2018-05-27T20:11:46.684Z,76.80
2018-05-27T20:14:14.246Z,76.80
2018-05-27T20:16:41.841Z,77.10
2018-05-27T20:19:09.455Z,78.40
2018-05-27T20:21:37.020Z,79.10
2018-05-27T20:24:04.770Z,77.30
2018-05-27T20:26:32.355Z,77.90
2018-05-27T20:28:59.967Z,76.20
2018-05-27T20:31:27.531Z,75.70
2018-05-27T20:33:55.142Z,77.40
2018-05-27T20:36:22.720Z,76.40
2018-05-27T20:38:50.986Z,77.80
2018-05-27T20:41:19.195Z,76.60
2018-05-27T20:43:46.868Z,78.10
2018-05-27T20:46:14.434Z,77.40
2018-05-27T20:48:42.027Z,76.20
2018-05-27T20:51:09.630Z,77.10
2018-05-27T20:53:37.251Z,76.50
2018-05-27T20:56:04.825Z,78.50
2018-05-27T20:58:32.440Z,78.10
2018-05-27T21:01:00.016Z,78.40
2018-05-27T21:03:27.607Z,78.10
2018-05-27T21:05:55.179Z,76.80
2018-05-27T21:08:23.551Z,76.30
2018-05-27T21:10:51.132Z,76.30
2018-05-27T21:13:18.724Z,77.10
2018-05-27T21:15:46.305Z,76.40
2018-05-27T21:18:13.903Z,75.60
2018-05-27T21:20:42.241Z,76.20
2018-05-27T21:23:09.827Z,76.00
2018-05-27T21:25:37.426Z,76.20
2018-05-27T21:28:05.007Z,78.40
2018-05-27T21:30:32.607Z,77.50
2018-05-27T21:33:00.189Z,76.80
2018-05-27T21:35:28.573Z,76.60
2018-05-27T21:37:56.911Z,77.30
2018-05-27T21:40:24.503Z,77.10
2018-05-27T21:42:52.069Z,76.10
2018-05-27T21:45:19.675Z,78.10
2018-05-27T21:47:47.244Z,76.80
2018-05-27T21:50:14.840Z,77.60
2018-05-27T21:52:43.170Z,75.80
2018-05-27T21:55:10.771Z,75.90
2018-05-27T21:57:39.102Z,77.70
2018-05-27T22:00:06.757Z,77.70
2018-05-27T22:02:35.095Z,78.30
2018-05-27T22:05:03.466Z,75.80
2018-05-27T22:07:31.035Z,75.80
2018-05-27T22:09:59.399Z,76.70
2018-05-27T22:12:27.739Z,79.30
2018-05-27T22:14:55.336Z,79.10
2018-05-27T22:17:22.916Z,77.80
2018-05-27T22:19:50.518Z,78.20
2018-05-27T22:22:18.099Z,78.40
2018-05-27T22:24:45.699Z,76.40
2018-05-27T22:27:13.272Z,77.40
2018-05-27T22:29:40.871Z,76.00
2018-05-27T22:32:08.444Z,76.10
2018-05-27T22:34:36.016Z,76.70
2018-05-27T22:37:04.448Z,76.20
2018-05-27T22:39:32.029Z,76.20
2018-05-27T22:41:59.627Z,78.70
2018-05-27T22:44:27.207Z,76.90
2018-05-27T22:46:54.808Z,76.90
2018-05-27T22:49:22.395Z,78.50
2018-05-27T22:51:50.756Z,76.00
2018-05-27T22:54:18.327Z,75.90
2018-05-27T22:56:45.919Z,77.40
2018-05-27T22:59:13.496Z,75.20
2018-05-27T23:01:41.094Z,78.30
2018-05-27T23:04:08.669Z,74.80
2018-05-27T23:06:37.030Z,76.00
2018-05-27T23:09:04.648Z,75.90
2018-05-27T23:11:32.259Z,76.30
2018-05-27T23:14:00.600Z,77.90
2018-05-27T23:16:28.199Z,77.80
2018-05-27T23:18:55.772Z,78.00
2018-05-27T23:21:23.376Z,79.20
2018-05-27T23:23:50.943Z,79.10
2018-05-27T23:26:19.412Z,77.70
2018-05-27T23:28:46.983Z,77.60
2018-05-27T23:31:14.583Z,77.10
2018-05-27T23:33:42.159Z,77.10
2018-05-27T23:36:09.865Z,76.50
2018-05-27T23:38:37.407Z,78.10
2018-05-27T23:41:05.078Z,77.80
2018-05-27T23:43:32.659Z,78.00
2018-05-27T23:46:00.274Z,76.90
2018-05-27T23:48:27.862Z,77.70
2018-05-27T23:50:55.453Z,79.20
2018-05-27T23:53:23.811Z,75.30
2018-05-27T23:55:51.383Z,75.30
2018-05-27T23:58:18.980Z,75.80
